sensor_id;sensor_type;location;lat;lon;timestamp;P1;durP1;ratioP1;P2;durP2;ratioP2
57155;SDS011;43023;59.928;10.682;2023-01-28T00:01:50;12.73;;;5.55;;
57155;SDS011;43023;59.928;10.682;2023-01-28T00:04:16;8.73;;;5.72;;
57155;SDS011;43023;59.928;10.682;2023-01-28T00:06:42;8.63;;;5.10;;
57155;SDS011;43023;59.928;10.682;2023-01-28T00:09:08;9.63;;;5.60;;
57155;SDS011;43023;59.928;10.682;2023-01-28T00:11:35;11.32;;;5.78;;
57155;SDS011;43023;59.928;10.682;2023-01-28T00:14:01;6.88;;;5.43;;
57155;SDS011;43023;59.928;10.682;2023-01-28T00:16:29;7.80;;;5.03;;
57155;SDS011;43023;59.928;10.682;2023-01-28T00:18:55;7.93;;;5.05;;
57155;SDS011;43023;59.928;10.682;2023-01-28T00:21:21;9.95;;;5.80;;
57155;SDS011;43023;59.928;10.682;2023-01-28T00:23:49;9.07;;;6.05;;
57155;SDS011;43023;59.928;10.682;2023-01-28T00:26:16;7.88;;;5.20;;
57155;SDS011;43023;59.928;10.682;2023-01-28T00:28:42;8.57;;;5.65;;
57155;SDS011;43023;59.928;10.682;2023-01-28T00:31:09;9.13;;;6.00;;
57155;SDS011;43023;59.928;10.682;2023-01-28T00:33:36;8.60;;;5.25;;
57155;SDS011;43023;59.928;10.682;2023-01-28T00:36:02;5.72;;;4.85;;
57155;SDS011;43023;59.928;10.682;2023-01-28T00:38:30;8.98;;;6.20;;
57155;SDS011;43023;59.928;10.682;2023-01-28T00:41:05;9.10;;;5.85;;
57155;SDS011;43023;59.928;10.682;2023-01-28T00:43:31;7.47;;;4.93;;
57155;SDS011;43023;59.928;10.682;2023-01-28T00:45:57;10.10;;;6.18;;
57155;SDS011;43023;59.928;10.682;2023-01-28T00:48:23;10.88;;;5.97;;
57155;SDS011;43023;59.928;10.682;2023-01-28T00:50:49;8.15;;;5.15;;
57155;SDS011;43023;59.928;10.682;2023-01-28T00:53:16;8.63;;;5.40;;
57155;SDS011;43023;59.928;10.682;2023-01-28T00:55:42;8.27;;;5.53;;
57155;SDS011;43023;59.928;10.682;2023-01-28T00:58:08;6.85;;;5.18;;
57155;SDS011;43023;59.928;10.682;2023-01-28T01:00:34;7.88;;;4.95;;
57155;SDS011;43023;59.928;10.682;2023-01-28T01:03:00;7.13;;;5.53;;
57155;SDS011;43023;59.928;10.682;2023-01-28T01:05:26;7.47;;;4.97;;
57155;SDS011;43023;59.928;10.682;2023-01-28T01:07:53;8.68;;;5.80;;
57155;SDS011;43023;59.928;10.682;2023-01-28T01:10:19;7.03;;;4.90;;
57155;SDS011;43023;59.928;10.682;2023-01-28T01:12:46;6.65;;;5.00;;
57155;SDS011;43023;59.928;10.682;2023-01-28T01:15:12;8.20;;;5.78;;
57155;SDS011;43023;59.928;10.682;2023-01-28T01:17:39;7.63;;;5.53;;
57155;SDS011;43023;59.928;10.682;2023-01-28T01:20:08;7.65;;;5.13;;
57155;SDS011;43023;59.928;10.682;2023-01-28T01:22:36;6.43;;;4.28;;
57155;SDS011;43023;59.928;10.682;2023-01-28T01:25:03;7.55;;;4.40;;
57155;SDS011;43023;59.928;10.682;2023-01-28T01:27:30;10.50;;;5.15;;
57155;SDS011;43023;59.928;10.682;2023-01-28T01:29:56;7.45;;;4.40;;
57155;SDS011;43023;59.928;10.682;2023-01-28T01:32:23;6.03;;;4.25;;
57155;SDS011;43023;59.928;10.682;2023-01-28T01:34:49;7.38;;;4.72;;
57155;SDS011;43023;59.928;10.682;2023-01-28T01:37:15;6.63;;;4.32;;
57155;SDS011;43023;59.928;10.682;2023-01-28T01:39:41;6.63;;;4.30;;
57155;SDS011;43023;59.928;10.682;2023-01-28T01:42:11;5.93;;;4.43;;
57155;SDS011;43023;59.928;10.682;2023-01-28T01:47:27;8.45;;;4.50;;
57155;SDS011;43023;59.928;10.682;2023-01-28T01:49:54;6.85;;;4.30;;
57155;SDS011;43023;59.928;10.682;2023-01-28T01:52:23;5.88;;;4.32;;
57155;SDS011;43023;59.928;10.682;2023-01-28T01:54:51;6.63;;;4.30;;
57155;SDS011;43023;59.928;10.682;2023-01-28T01:57:21;6.55;;;4.30;;
57155;SDS011;43023;59.928;10.682;2023-01-28T01:59:47;6.35;;;3.97;;
57155;SDS011;43023;59.928;10.682;2023-01-28T02:02:13;5.13;;;3.63;;
57155;SDS011;43023;59.928;10.682;2023-01-28T02:04:41;5.43;;;3.97;;
57155;SDS011;43023;59.928;10.682;2023-01-28T02:07:08;5.60;;;3.95;;
57155;SDS011;43023;59.928;10.682;2023-01-28T02:09:37;5.07;;;4.10;;
57155;SDS011;43023;59.928;10.682;2023-01-28T02:12:09;5.93;;;4.05;;
57155;SDS011;43023;59.928;10.682;2023-01-28T02:14:47;5.15;;;3.80;;
57155;SDS011;43023;59.928;10.682;2023-01-28T02:17:14;4.20;;;3.58;;
57155;SDS011;43023;59.928;10.682;2023-01-28T02:30:17;4.18;;;3.03;;
57155;SDS011;43023;59.928;10.682;2023-01-28T02:32:50;4.35;;;3.17;;
57155;SDS011;43023;59.928;10.682;2023-01-28T02:35:28;4.35;;;3.20;;
57155;SDS011;43023;59.928;10.682;2023-01-28T02:40:35;4.63;;;3.25;;
57155;SDS011;43023;59.928;10.682;2023-01-28T02:43:38;3.70;;;2.90;;
57155;SDS011;43023;59.928;10.682;2023-01-28T02:49:27;4.72;;;3.05;;
57155;SDS011;43023;59.928;10.682;2023-01-28T02:59:47;4.38;;;2.83;;
57155;SDS011;43023;59.928;10.682;2023-01-28T03:02:27;4.65;;;3.35;;
57155;SDS011;43023;59.928;10.682;2023-01-28T03:07:30;4.55;;;3.55;;
57155;SDS011;43023;59.928;10.682;2023-01-28T03:09:57;4.13;;;3.10;;
57155;SDS011;43023;59.928;10.682;2023-01-28T03:12:24;4.30;;;2.97;;
57155;SDS011;43023;59.928;10.682;2023-01-28T03:15:16;4.00;;;2.83;;
57155;SDS011;43023;59.928;10.682;2023-01-28T03:18:09;4.25;;;2.83;;
57155;SDS011;43023;59.928;10.682;2023-01-28T03:20:56;3.78;;;3.05;;
57155;SDS011;43023;59.928;10.682;2023-01-28T03:23:55;4.28;;;2.92;;
57155;SDS011;43023;59.928;10.682;2023-01-28T03:26:46;4.88;;;3.00;;
57155;SDS011;43023;59.928;10.682;2023-01-28T03:29:34;4.78;;;3.08;;
57155;SDS011;43023;59.928;10.682;2023-01-28T03:32:20;4.00;;;3.05;;
57155;SDS011;43023;59.928;10.682;2023-01-28T03:35:06;2.70;;;2.42;;
57155;SDS011;43023;59.928;10.682;2023-01-28T03:37:52;3.85;;;2.83;;
57155;SDS011;43023;59.928;10.682;2023-01-28T03:40:18;4.25;;;2.40;;
57155;SDS011;43023;59.928;10.682;2023-01-28T03:42:44;4.35;;;2.78;;
57155;SDS011;43023;59.928;10.682;2023-01-28T03:45:10;3.40;;;2.50;;
57155;SDS011;43023;59.928;10.682;2023-01-28T03:47:38;3.13;;;2.78;;
57155;SDS011;43023;59.928;10.682;2023-01-28T03:50:05;3.45;;;2.78;;
57155;SDS011;43023;59.928;10.682;2023-01-28T03:52:31;3.47;;;2.78;;
57155;SDS011;43023;59.928;10.682;2023-01-28T03:54:58;4.22;;;2.97;;
57155;SDS011;43023;59.928;10.682;2023-01-28T03:57:25;3.80;;;2.47;;
57155;SDS011;43023;59.928;10.682;2023-01-28T03:59:52;2.78;;;2.40;;
57155;SDS011;43023;59.928;10.682;2023-01-28T04:02:19;3.47;;;2.80;;
57155;SDS011;43023;59.928;10.682;2023-01-28T04:04:45;2.97;;;2.42;;
57155;SDS011;43023;59.928;10.682;2023-01-28T04:07:12;2.83;;;2.45;;
57155;SDS011;43023;59.928;10.682;2023-01-28T04:09:39;6.10;;;3.22;;
57155;SDS011;43023;59.928;10.682;2023-01-28T04:12:06;2.58;;;2.38;;
57155;SDS011;43023;59.928;10.682;2023-01-28T04:14:32;2.55;;;2.17;;
57155;SDS011;43023;59.928;10.682;2023-01-28T04:16:58;3.50;;;2.80;;
57155;SDS011;43023;59.928;10.682;2023-01-28T04:19:24;3.58;;;2.45;;
57155;SDS011;43023;59.928;10.682;2023-01-28T04:21:51;4.20;;;2.88;;
57155;SDS011;43023;59.928;10.682;2023-01-28T04:24:21;3.08;;;2.65;;
57155;SDS011;43023;59.928;10.682;2023-01-28T04:26:47;3.20;;;2.65;;
57155;SDS011;43023;59.928;10.682;2023-01-28T04:29:14;3.13;;;2.72;;
57155;SDS011;43023;59.928;10.682;2023-01-28T04:31:40;3.22;;;2.72;;
57155;SDS011;43023;59.928;10.682;2023-01-28T04:34:06;3.25;;;2.70;;
57155;SDS011;43023;59.928;10.682;2023-01-28T04:36:33;3.72;;;2.33;;
57155;SDS011;43023;59.928;10.682;2023-01-28T04:38:59;5.35;;;2.65;;
57155;SDS011;43023;59.928;10.682;2023-01-28T04:41:25;3.60;;;2.38;;
57155;SDS011;43023;59.928;10.682;2023-01-28T04:43:51;2.53;;;2.13;;
57155;SDS011;43023;59.928;10.682;2023-01-28T04:46:17;3.25;;;2.22;;
57155;SDS011;43023;59.928;10.682;2023-01-28T04:48:43;3.35;;;2.33;;
57155;SDS011;43023;59.928;10.682;2023-01-28T04:51:09;3.03;;;2.33;;
57155;SDS011;43023;59.928;10.682;2023-01-28T04:53:35;2.35;;;2.15;;
57155;SDS011;43023;59.928;10.682;2023-01-28T04:56:01;4.60;;;2.67;;
57155;SDS011;43023;59.928;10.682;2023-01-28T04:58:27;2.47;;;2.15;;
57155;SDS011;43023;59.928;10.682;2023-01-28T05:00:54;2.75;;;2.55;;
57155;SDS011;43023;59.928;10.682;2023-01-28T05:03:21;2.70;;;2.30;;
57155;SDS011;43023;59.928;10.682;2023-01-28T05:05:47;2.58;;;2.03;;
57155;SDS011;43023;59.928;10.682;2023-01-28T05:08:13;3.60;;;1.95;;
57155;SDS011;43023;59.928;10.682;2023-01-28T05:10:39;4.85;;;2.83;;
57155;SDS011;43023;59.928;10.682;2023-01-28T05:13:05;3.53;;;2.47;;
57155;SDS011;43023;59.928;10.682;2023-01-28T05:15:31;2.30;;;2.10;;
57155;SDS011;43023;59.928;10.682;2023-01-28T05:17:57;4.70;;;2.60;;
57155;SDS011;43023;59.928;10.682;2023-01-28T05:20:24;2.40;;;2.15;;
57155;SDS011;43023;59.928;10.682;2023-01-28T05:22:50;2.83;;;2.00;;
57155;SDS011;43023;59.928;10.682;2023-01-28T05:25:16;2.40;;;2.20;;
57155;SDS011;43023;59.928;10.682;2023-01-28T05:27:42;3.63;;;2.60;;
57155;SDS011;43023;59.928;10.682;2023-01-28T05:30:09;2.25;;;2.05;;
57155;SDS011;43023;59.928;10.682;2023-01-28T05:32:35;3.35;;;2.25;;
57155;SDS011;43023;59.928;10.682;2023-01-28T05:35:01;2.58;;;2.08;;
57155;SDS011;43023;59.928;10.682;2023-01-28T05:37:27;2.42;;;1.77;;
57155;SDS011;43023;59.928;10.682;2023-01-28T05:39:53;2.13;;;1.90;;
57155;SDS011;43023;59.928;10.682;2023-01-28T05:42:19;2.25;;;1.77;;
57155;SDS011;43023;59.928;10.682;2023-01-28T05:44:46;2.47;;;2.03;;
57155;SDS011;43023;59.928;10.682;2023-01-28T05:47:12;2.78;;;2.25;;
57155;SDS011;43023;59.928;10.682;2023-01-28T05:49:38;3.22;;;2.75;;
57155;SDS011;43023;59.928;10.682;2023-01-28T05:52:04;3.33;;;2.25;;
57155;SDS011;43023;59.928;10.682;2023-01-28T05:54:30;3.78;;;2.67;;
57155;SDS011;43023;59.928;10.682;2023-01-28T05:56:57;2.35;;;1.90;;
57155;SDS011;43023;59.928;10.682;2023-01-28T05:59:23;2.25;;;2.05;;
57155;SDS011;43023;59.928;10.682;2023-01-28T06:01:49;2.20;;;2.00;;
57155;SDS011;43023;59.928;10.682;2023-01-28T06:04:15;3.67;;;2.08;;
57155;SDS011;43023;59.928;10.682;2023-01-28T06:06:43;2.38;;;2.15;;
57155;SDS011;43023;59.928;10.682;2023-01-28T06:09:09;2.03;;;1.80;;
57155;SDS011;43023;59.928;10.682;2023-01-28T06:11:35;2.53;;;2.15;;
57155;SDS011;43023;59.928;10.682;2023-01-28T06:14:01;2.00;;;1.65;;
57155;SDS011;43023;59.928;10.682;2023-01-28T06:16:27;2.63;;;2.17;;
57155;SDS011;43023;59.928;10.682;2023-01-28T06:18:53;2.40;;;1.83;;
57155;SDS011;43023;59.928;10.682;2023-01-28T06:21:19;3.15;;;2.10;;
57155;SDS011;43023;59.928;10.682;2023-01-28T06:23:45;2.28;;;1.88;;
57155;SDS011;43023;59.928;10.682;2023-01-28T06:26:11;2.13;;;1.80;;
57155;SDS011;43023;59.928;10.682;2023-01-28T06:28:37;1.80;;;1.58;;
57155;SDS011;43023;59.928;10.682;2023-01-28T06:31:03;4.22;;;2.00;;
57155;SDS011;43023;59.928;10.682;2023-01-28T06:33:30;3.05;;;2.00;;
57155;SDS011;43023;59.928;10.682;2023-01-28T06:35:56;1.88;;;1.52;;
57155;SDS011;43023;59.928;10.682;2023-01-28T06:38:22;3.75;;;2.30;;
57155;SDS011;43023;59.928;10.682;2023-01-28T06:40:52;3.55;;;2.05;;
57155;SDS011;43023;59.928;10.682;2023-01-28T06:43:20;2.33;;;1.92;;
57155;SDS011;43023;59.928;10.682;2023-01-28T06:45:51;2.42;;;2.08;;
57155;SDS011;43023;59.928;10.682;2023-01-28T06:48:18;2.08;;;1.77;;
57155;SDS011;43023;59.928;10.682;2023-01-28T06:50:45;1.92;;;1.50;;
57155;SDS011;43023;59.928;10.682;2023-01-28T06:53:11;2.40;;;1.83;;
57155;SDS011;43023;59.928;10.682;2023-01-28T06:55:38;1.83;;;1.73;;
57155;SDS011;43023;59.928;10.682;2023-01-28T06:58:04;2.33;;;1.92;;
57155;SDS011;43023;59.928;10.682;2023-01-28T07:00:30;3.58;;;1.70;;
57155;SDS011;43023;59.928;10.682;2023-01-28T07:02:56;2.33;;;1.95;;
57155;SDS011;43023;59.928;10.682;2023-01-28T07:05:22;2.15;;;1.83;;
57155;SDS011;43023;59.928;10.682;2023-01-28T07:07:48;1.52;;;1.42;;
57155;SDS011;43023;59.928;10.682;2023-01-28T07:10:14;1.75;;;1.65;;
57155;SDS011;43023;59.928;10.682;2023-01-28T07:12:41;1.83;;;1.73;;
57155;SDS011;43023;59.928;10.682;2023-01-28T07:15:07;2.03;;;1.83;;
57155;SDS011;43023;59.928;10.682;2023-01-28T07:17:35;2.50;;;2.03;;
57155;SDS011;43023;59.928;10.682;2023-01-28T07:20:01;3.70;;;1.88;;
57155;SDS011;43023;59.928;10.682;2023-01-28T07:22:27;2.22;;;1.80;;
57155;SDS011;43023;59.928;10.682;2023-01-28T07:24:53;2.20;;;1.58;;
57155;SDS011;43023;59.928;10.682;2023-01-28T07:27:19;2.20;;;1.83;;
57155;SDS011;43023;59.928;10.682;2023-01-28T07:29:45;2.33;;;1.95;;
57155;SDS011;43023;59.928;10.682;2023-01-28T07:32:11;2.85;;;2.13;;
57155;SDS011;43023;59.928;10.682;2023-01-28T07:34:37;4.40;;;1.83;;
57155;SDS011;43023;59.928;10.682;2023-01-28T07:37:05;2.33;;;1.80;;
57155;SDS011;43023;59.928;10.682;2023-01-28T07:39:31;2.53;;;1.88;;
57155;SDS011;43023;59.928;10.682;2023-01-28T07:41:58;5.88;;;1.80;;
57155;SDS011;43023;59.928;10.682;2023-01-28T07:44:24;2.58;;;2.30;;
57155;SDS011;43023;59.928;10.682;2023-01-28T07:46:50;1.95;;;1.50;;
57155;SDS011;43023;59.928;10.682;2023-01-28T07:49:17;2.25;;;2.03;;
57155;SDS011;43023;59.928;10.682;2023-01-28T07:51:43;3.72;;;1.90;;
57155;SDS011;43023;59.928;10.682;2023-01-28T07:54:11;3.20;;;1.67;;
57155;SDS011;43023;59.928;10.682;2023-01-28T07:56:37;4.82;;;2.22;;
57155;SDS011;43023;59.928;10.682;2023-01-28T07:59:03;3.53;;;2.38;;
57155;SDS011;43023;59.928;10.682;2023-01-28T08:01:29;4.70;;;1.85;;
57155;SDS011;43023;59.928;10.682;2023-01-28T08:03:55;4.25;;;2.17;;
57155;SDS011;43023;59.928;10.682;2023-01-28T08:06:21;2.75;;;1.90;;
57155;SDS011;43023;59.928;10.682;2023-01-28T08:08:47;2.08;;;1.88;;
57155;SDS011;43023;59.928;10.682;2023-01-28T08:11:14;4.25;;;2.28;;
57155;SDS011;43023;59.928;10.682;2023-01-28T08:13:40;2.80;;;2.30;;
57155;SDS011;43023;59.928;10.682;2023-01-28T08:16:06;12.52;;;2.88;;
57155;SDS011;43023;59.928;10.682;2023-01-28T08:18:32;2.70;;;1.73;;
57155;SDS011;43023;59.928;10.682;2023-01-28T08:20:58;3.08;;;2.28;;
57155;SDS011;43023;59.928;10.682;2023-01-28T08:23:25;3.90;;;2.80;;
57155;SDS011;43023;59.928;10.682;2023-01-28T08:25:52;4.18;;;2.58;;
57155;SDS011;43023;59.928;10.682;2023-01-28T08:28:18;2.63;;;2.15;;
57155;SDS011;43023;59.928;10.682;2023-01-28T08:30:45;3.67;;;2.22;;
57155;SDS011;43023;59.928;10.682;2023-01-28T08:33:12;6.63;;;2.30;;
57155;SDS011;43023;59.928;10.682;2023-01-28T08:35:38;7.00;;;2.40;;
57155;SDS011;43023;59.928;10.682;2023-01-28T08:38:05;4.20;;;2.65;;
57155;SDS011;43023;59.928;10.682;2023-01-28T08:40:31;3.03;;;2.72;;
57155;SDS011;43023;59.928;10.682;2023-01-28T08:42:58;3.38;;;2.38;;
57155;SDS011;43023;59.928;10.682;2023-01-28T08:45:24;4.22;;;2.47;;
57155;SDS011;43023;59.928;10.682;2023-01-28T08:47:51;4.60;;;3.03;;
57155;SDS011;43023;59.928;10.682;2023-01-28T08:50:19;5.18;;;3.17;;
57155;SDS011;43023;59.928;10.682;2023-01-28T08:52:45;4.68;;;2.72;;
57155;SDS011;43023;59.928;10.682;2023-01-28T08:55:13;4.13;;;2.58;;
57155;SDS011;43023;59.928;10.682;2023-01-28T08:57:39;4.05;;;2.72;;
57155;SDS011;43023;59.928;10.682;2023-01-28T09:00:07;4.95;;;2.92;;
57155;SDS011;43023;59.928;10.682;2023-01-28T09:02:37;3.97;;;2.63;;
57155;SDS011;43023;59.928;10.682;2023-01-28T09:05:03;3.30;;;2.53;;
57155;SDS011;43023;59.928;10.682;2023-01-28T09:07:30;5.43;;;3.15;;
57155;SDS011;43023;59.928;10.682;2023-01-28T09:09:56;3.88;;;3.00;;
57155;SDS011;43023;59.928;10.682;2023-01-28T09:12:22;4.20;;;2.92;;
57155;SDS011;43023;59.928;10.682;2023-01-28T09:14:48;5.15;;;3.20;;
57155;SDS011;43023;59.928;10.682;2023-01-28T09:17:14;8.90;;;3.58;;
57155;SDS011;43023;59.928;10.682;2023-01-28T09:19:40;4.38;;;3.35;;
57155;SDS011;43023;59.928;10.682;2023-01-28T09:22:06;7.10;;;3.00;;
57155;SDS011;43023;59.928;10.682;2023-01-28T09:24:32;3.78;;;2.83;;
57155;SDS011;43023;59.928;10.682;2023-01-28T09:26:58;5.60;;;3.30;;
57155;SDS011;43023;59.928;10.682;2023-01-28T09:29:24;5.00;;;3.47;;
57155;SDS011;43023;59.928;10.682;2023-01-28T09:31:50;5.15;;;3.17;;
57155;SDS011;43023;59.928;10.682;2023-01-28T09:34:17;4.43;;;3.47;;
57155;SDS011;43023;59.928;10.682;2023-01-28T09:36:43;4.47;;;2.88;;
57155;SDS011;43023;59.928;10.682;2023-01-28T09:39:09;5.03;;;3.75;;
57155;SDS011;43023;59.928;10.682;2023-01-28T09:44:55;5.90;;;3.50;;
57155;SDS011;43023;59.928;10.682;2023-01-28T09:47:19;6.95;;;3.33;;
57155;SDS011;43023;59.928;10.682;2023-01-28T09:49:47;10.07;;;6.70;;
57155;SDS011;43023;59.928;10.682;2023-01-28T09:52:15;9.82;;;6.88;;
57155;SDS011;43023;59.928;10.682;2023-01-28T09:54:47;6.95;;;5.10;;
57155;SDS011;43023;59.928;10.682;2023-01-28T09:57:23;7.80;;;5.35;;
57155;SDS011;43023;59.928;10.682;2023-01-28T09:59:49;8.02;;;5.20;;
57155;SDS011;43023;59.928;10.682;2023-01-28T10:12:26;7.63;;;5.13;;
57155;SDS011;43023;59.928;10.682;2023-01-28T10:17:42;9.70;;;5.57;;
57155;SDS011;43023;59.928;10.682;2023-01-28T10:20:20;10.82;;;5.38;;
57155;SDS011;43023;59.928;10.682;2023-01-28T10:25:34;7.43;;;5.40;;
57155;SDS011;43023;59.928;10.682;2023-01-28T10:28:01;11.70;;;5.18;;
57155;SDS011;43023;59.928;10.682;2023-01-28T10:30:29;8.20;;;5.07;;
57155;SDS011;43023;59.928;10.682;2023-01-28T10:33:03;6.75;;;4.82;;
57155;SDS011;43023;59.928;10.682;2023-01-28T10:37:58;12.32;;;5.60;;
57155;SDS011;43023;59.928;10.682;2023-01-28T10:40:25;7.40;;;5.18;;
57155;SDS011;43023;59.928;10.682;2023-01-28T10:42:51;6.38;;;5.03;;
57155;SDS011;43023;59.928;10.682;2023-01-28T10:45:28;9.70;;;5.28;;
57155;SDS011;43023;59.928;10.682;2023-01-28T10:50:28;9.88;;;4.55;;
57155;SDS011;43023;59.928;10.682;2023-01-28T10:52:58;9.38;;;5.47;;
57155;SDS011;43023;59.928;10.682;2023-01-28T10:55:29;9.05;;;4.75;;
57155;SDS011;43023;59.928;10.682;2023-01-28T10:57:55;8.93;;;4.75;;
57155;SDS011;43023;59.928;10.682;2023-01-28T11:02:49;9.15;;;5.07;;
57155;SDS011;43023;59.928;10.682;2023-01-28T11:07:41;8.07;;;5.22;;
57155;SDS011;43023;59.928;10.682;2023-01-28T11:10:28;8.63;;;5.13;;
57155;SDS011;43023;59.928;10.682;2023-01-28T11:12:59;6.15;;;4.45;;
57155;SDS011;43023;59.928;10.682;2023-01-28T11:15:26;8.05;;;5.00;;
57155;SDS011;43023;59.928;10.682;2023-01-28T11:18:14;5.88;;;4.95;;
57155;SDS011;43023;59.928;10.682;2023-01-28T11:20:41;8.98;;;5.22;;
57155;SDS011;43023;59.928;10.682;2023-01-28T11:23:18;9.43;;;5.60;;
57155;SDS011;43023;59.928;10.682;2023-01-28T11:25:47;8.23;;;5.90;;
57155;SDS011;43023;59.928;10.682;2023-01-28T11:28:15;8.45;;;5.95;;
57155;SDS011;43023;59.928;10.682;2023-01-28T11:30:42;7.45;;;5.30;;
57155;SDS011;43023;59.928;10.682;2023-01-28T11:35:37;9.15;;;5.85;;
57155;SDS011;43023;59.928;10.682;2023-01-28T11:38:10;7.30;;;5.45;;
57155;SDS011;43023;59.928;10.682;2023-01-28T11:40:48;10.63;;;5.30;;
57155;SDS011;43023;59.928;10.682;2023-01-28T11:43:14;7.40;;;5.38;;
57155;SDS011;43023;59.928;10.682;2023-01-28T11:45:46;5.90;;;4.93;;
57155;SDS011;43023;59.928;10.682;2023-01-28T11:51:02;6.90;;;5.65;;
57155;SDS011;43023;59.928;10.682;2023-01-28T12:09:19;8.30;;;4.78;;
57155;SDS011;43023;59.928;10.682;2023-01-28T12:11:58;5.88;;;4.50;;
57155;SDS011;43023;59.928;10.682;2023-01-28T12:29:46;5.82;;;5.00;;
57155;SDS011;43023;59.928;10.682;2023-01-28T12:32:24;9.38;;;5.32;;
57155;SDS011;43023;59.928;10.682;2023-01-28T12:37:25;6.80;;;4.70;;
57155;SDS011;43023;59.928;10.682;2023-01-28T12:45:16;6.38;;;4.30;;
57155;SDS011;43023;59.928;10.682;2023-01-28T12:47:51;6.63;;;4.97;;
57155;SDS011;43023;59.928;10.682;2023-01-28T12:50:21;8.43;;;4.40;;
57155;SDS011;43023;59.928;10.682;2023-01-28T12:52:51;7.05;;;4.50;;
57155;SDS011;43023;59.928;10.682;2023-01-28T12:55:25;9.15;;;4.70;;
57155;SDS011;43023;59.928;10.682;2023-01-28T12:57:55;6.07;;;4.45;;
57155;SDS011;43023;59.928;10.682;2023-01-28T13:03:01;4.70;;;4.15;;
57155;SDS011;43023;59.928;10.682;2023-01-28T13:05:32;8.52;;;4.90;;
57155;SDS011;43023;59.928;10.682;2023-01-28T13:08:03;6.05;;;4.38;;
57155;SDS011;43023;59.928;10.682;2023-01-28T13:10:39;6.65;;;4.18;;
57155;SDS011;43023;59.928;10.682;2023-01-28T13:13:07;5.63;;;3.97;;
57155;SDS011;43023;59.928;10.682;2023-01-28T13:15:38;7.20;;;4.53;;
57155;SDS011;43023;59.928;10.682;2023-01-28T13:18:06;7.45;;;3.97;;
57155;SDS011;43023;59.928;10.682;2023-01-28T13:20:37;5.07;;;4.15;;
57155;SDS011;43023;59.928;10.682;2023-01-28T13:23:20;5.05;;;4.38;;
57155;SDS011;43023;59.928;10.682;2023-01-28T13:25:47;5.22;;;4.55;;
57155;SDS011;43023;59.928;10.682;2023-01-28T13:28:30;4.25;;;3.67;;
57155;SDS011;43023;59.928;10.682;2023-01-28T13:31:00;5.60;;;4.07;;
57155;SDS011;43023;59.928;10.682;2023-01-28T13:33:31;5.50;;;4.70;;
57155;SDS011;43023;59.928;10.682;2023-01-28T13:36:00;4.68;;;4.18;;
57155;SDS011;43023;59.928;10.682;2023-01-28T13:38:26;5.22;;;4.63;;
57155;SDS011;43023;59.928;10.682;2023-01-28T13:40:57;5.90;;;4.43;;
57155;SDS011;43023;59.928;10.682;2023-01-28T13:45:54;9.73;;;4.55;;
57155;SDS011;43023;59.928;10.682;2023-01-28T13:48:23;10.27;;;4.35;;
57155;SDS011;43023;59.928;10.682;2023-01-28T13:50:52;8.15;;;3.85;;
57155;SDS011;43023;59.928;10.682;2023-01-28T13:53:23;8.93;;;4.55;;
57155;SDS011;43023;59.928;10.682;2023-01-28T13:55:54;11.02;;;4.45;;
57155;SDS011;43023;59.928;10.682;2023-01-28T14:06:27;9.30;;;4.43;;
57155;SDS011;43023;59.928;10.682;2023-01-28T14:16:50;5.30;;;4.05;;
57155;SDS011;43023;59.928;10.682;2023-01-28T14:19:19;4.72;;;4.03;;
57155;SDS011;43023;59.928;10.682;2023-01-28T14:21:48;6.53;;;4.35;;
57155;SDS011;43023;59.928;10.682;2023-01-28T14:24:16;6.78;;;3.85;;
57155;SDS011;43023;59.928;10.682;2023-01-28T14:27:02;6.25;;;3.58;;
57155;SDS011;43023;59.928;10.682;2023-01-28T14:32:16;8.48;;;4.10;;
57155;SDS011;43023;59.928;10.682;2023-01-28T14:34:43;4.53;;;4.13;;
57155;SDS011;43023;59.928;10.682;2023-01-28T14:37:14;5.18;;;4.50;;
57155;SDS011;43023;59.928;10.682;2023-01-28T14:39:43;5.72;;;3.97;;
57155;SDS011;43023;59.928;10.682;2023-01-28T14:42:12;12.45;;;4.35;;
57155;SDS011;43023;59.928;10.682;2023-01-28T14:44:39;6.22;;;4.97;;
57155;SDS011;43023;59.928;10.682;2023-01-28T14:47:28;6.78;;;5.13;;
57155;SDS011;43023;59.928;10.682;2023-01-28T14:57:48;11.38;;;5.43;;
57155;SDS011;43023;59.928;10.682;2023-01-28T15:02:43;7.93;;;6.35;;
57155;SDS011;43023;59.928;10.682;2023-01-28T15:05:31;12.77;;;7.00;;
57155;SDS011;43023;59.928;10.682;2023-01-28T15:07:56;11.18;;;6.60;;
57155;SDS011;43023;59.928;10.682;2023-01-28T15:10:27;8.65;;;6.43;;
57155;SDS011;43023;59.928;10.682;2023-01-28T15:12:56;9.85;;;6.60;;
57155;SDS011;43023;59.928;10.682;2023-01-28T15:15:24;11.15;;;7.20;;
57155;SDS011;43023;59.928;10.682;2023-01-28T15:17:53;14.85;;;6.50;;
57155;SDS011;43023;59.928;10.682;2023-01-28T15:20:20;11.77;;;7.28;;
57155;SDS011;43023;59.928;10.682;2023-01-28T15:22:48;13.00;;;7.35;;
57155;SDS011;43023;59.928;10.682;2023-01-28T15:25:16;13.50;;;6.88;;
57155;SDS011;43023;59.928;10.682;2023-01-28T15:27:43;10.20;;;7.00;;
57155;SDS011;43023;59.928;10.682;2023-01-28T15:32:44;11.05;;;7.15;;
57155;SDS011;43023;59.928;10.682;2023-01-28T15:35:11;10.05;;;6.97;;
57155;SDS011;43023;59.928;10.682;2023-01-28T15:37:38;9.52;;;6.78;;
57155;SDS011;43023;59.928;10.682;2023-01-28T15:40:05;7.97;;;6.05;;
57155;SDS011;43023;59.928;10.682;2023-01-28T15:42:32;7.88;;;6.40;;
57155;SDS011;43023;59.928;10.682;2023-01-28T15:44:59;9.02;;;5.95;;
57155;SDS011;43023;59.928;10.682;2023-01-28T15:47:27;9.18;;;6.18;;
57155;SDS011;43023;59.928;10.682;2023-01-28T15:49:54;10.65;;;6.43;;
57155;SDS011;43023;59.928;10.682;2023-01-28T15:52:28;8.27;;;6.28;;
57155;SDS011;43023;59.928;10.682;2023-01-28T15:54:55;8.43;;;6.30;;
57155;SDS011;43023;59.928;10.682;2023-01-28T15:57:24;7.88;;;6.15;;
57155;SDS011;43023;59.928;10.682;2023-01-28T15:59:51;9.85;;;6.03;;
57155;SDS011;43023;59.928;10.682;2023-01-28T16:02:30;7.32;;;5.30;;
57155;SDS011;43023;59.928;10.682;2023-01-28T16:05:00;8.43;;;5.80;;
57155;SDS011;43023;59.928;10.682;2023-01-28T16:07:27;7.75;;;5.88;;
57155;SDS011;43023;59.928;10.682;2023-01-28T16:09:54;8.18;;;6.13;;
57155;SDS011;43023;59.928;10.682;2023-01-28T16:12:21;7.70;;;5.68;;
57155;SDS011;43023;59.928;10.682;2023-01-28T16:17:20;6.78;;;5.28;;
57155;SDS011;43023;59.928;10.682;2023-01-28T16:19:51;6.53;;;5.38;;
57155;SDS011;43023;59.928;10.682;2023-01-28T16:22:25;12.48;;;5.20;;
57155;SDS011;43023;59.928;10.682;2023-01-28T16:24:54;7.60;;;5.97;;
57155;SDS011;43023;59.928;10.682;2023-01-28T16:27:24;9.27;;;6.03;;
57155;SDS011;43023;59.928;10.682;2023-01-28T16:29:50;8.82;;;5.63;;
57155;SDS011;43023;59.928;10.682;2023-01-28T16:34:58;9.20;;;5.70;;
57155;SDS011;43023;59.928;10.682;2023-01-28T16:37:24;9.40;;;5.63;;
57155;SDS011;43023;59.928;10.682;2023-01-28T16:39:50;13.48;;;6.20;;
57155;SDS011;43023;59.928;10.682;2023-01-28T16:42:16;5.57;;;4.78;;
57155;SDS011;43023;59.928;10.682;2023-01-28T16:44:43;7.47;;;5.63;;
57155;SDS011;43023;59.928;10.682;2023-01-28T16:47:09;12.63;;;5.82;;
57155;SDS011;43023;59.928;10.682;2023-01-28T16:49:36;7.88;;;5.43;;
57155;SDS011;43023;59.928;10.682;2023-01-28T16:52:02;11.02;;;5.88;;
57155;SDS011;43023;59.928;10.682;2023-01-28T16:54:28;8.52;;;5.45;;
57155;SDS011;43023;59.928;10.682;2023-01-28T16:56:55;7.78;;;5.95;;
57155;SDS011;43023;59.928;10.682;2023-01-28T16:59:22;11.23;;;6.32;;
57155;SDS011;43023;59.928;10.682;2023-01-28T17:01:48;8.07;;;6.25;;
57155;SDS011;43023;59.928;10.682;2023-01-28T17:04:14;7.88;;;5.70;;
57155;SDS011;43023;59.928;10.682;2023-01-28T17:06:40;9.18;;;5.65;;